sensor_id;sensor_type;location;lat;lon;timestamp;P1;durP1;ratioP1;P2;durP2;ratioP2
2173;SDS011;1093;51.424;11.764;2023-10-31T00:01:30;22.13;;;17.40;;
2173;SDS011;1093;51.424;11.764;2023-10-31T00:03:56;27.03;;;17.90;;
2173;SDS011;1093;51.424;11.764;2023-10-31T00:06:23;25.70;;;18.03;;
2173;SDS011;1093;51.424;11.764;2023-10-31T00:08:50;34.33;;;20.27;;
2173;SDS011;1093;51.424;11.764;2023-10-31T00:11:17;31.43;;;20.60;;
2173;SDS011;1093;51.424;11.764;2023-10-31T00:13:44;62.37;;;24.23;;
2173;SDS011;1093;51.424;11.764;2023-10-31T00:16:12;31.90;;;22.60;;
2173;SDS011;1093;51.424;11.764;2023-10-31T00:18:40;38.40;;;22.90;;
2173;SDS011;1093;51.424;11.764;2023-10-31T00:21:07;39.90;;;25.63;;
2173;SDS011;1093;51.424;11.764;2023-10-31T00:23:34;43.10;;;26.37;;
2173;SDS011;1093;51.424;11.764;2023-10-31T00:26:08;50.53;;;25.33;;
2173;SDS011;1093;51.424;11.764;2023-10-31T00:28:35;45.00;;;26.43;;
2173;SDS011;1093;51.424;11.764;2023-10-31T00:31:02;45.40;;;25.80;;
2173;SDS011;1093;51.424;11.764;2023-10-31T00:33:30;48.67;;;25.90;;
2173;SDS011;1093;51.424;11.764;2023-10-31T00:35:58;43.87;;;26.70;;
2173;SDS011;1093;51.424;11.764;2023-10-31T00:38:25;40.57;;;24.10;;
2173;SDS011;1093;51.424;11.764;2023-10-31T00:40:52;49.53;;;24.57;;
2173;SDS011;1093;51.424;11.764;2023-10-31T00:43:19;43.57;;;25.17;;
2173;SDS011;1093;51.424;11.764;2023-10-31T00:45:46;35.67;;;25.03;;
2173;SDS011;1093;51.424;11.764;2023-10-31T00:48:12;36.17;;;24.60;;
2173;SDS011;1093;51.424;11.764;2023-10-31T00:50:39;38.40;;;22.40;;
2173;SDS011;1093;51.424;11.764;2023-10-31T00:53:07;32.30;;;22.50;;
2173;SDS011;1093;51.424;11.764;2023-10-31T00:55:34;32.73;;;22.63;;
2173;SDS011;1093;51.424;11.764;2023-10-31T00:58:01;30.80;;;21.77;;
2173;SDS011;1093;51.424;11.764;2023-10-31T01:00:28;30.07;;;20.17;;
2173;SDS011;1093;51.424;11.764;2023-10-31T01:02:55;30.97;;;20.67;;
2173;SDS011;1093;51.424;11.764;2023-10-31T01:05:22;34.13;;;20.67;;
2173;SDS011;1093;51.424;11.764;2023-10-31T01:07:49;25.67;;;17.60;;
2173;SDS011;1093;51.424;11.764;2023-10-31T01:10:17;28.13;;;20.60;;
2173;SDS011;1093;51.424;11.764;2023-10-31T01:12:43;34.40;;;19.90;;
2173;SDS011;1093;51.424;11.764;2023-10-31T01:15:10;34.70;;;21.00;;
2173;SDS011;1093;51.424;11.764;2023-10-31T01:17:37;30.47;;;20.90;;
2173;SDS011;1093;51.424;11.764;2023-10-31T01:20:05;30.40;;;18.83;;
2173;SDS011;1093;51.424;11.764;2023-10-31T01:22:33;30.37;;;20.70;;
2173;SDS011;1093;51.424;11.764;2023-10-31T01:24:59;39.27;;;22.87;;
2173;SDS011;1093;51.424;11.764;2023-10-31T01:27:28;30.57;;;20.83;;
2173;SDS011;1093;51.424;11.764;2023-10-31T01:29:55;34.00;;;21.80;;
2173;SDS011;1093;51.424;11.764;2023-10-31T01:32:22;36.40;;;23.17;;
2173;SDS011;1093;51.424;11.764;2023-10-31T01:34:49;34.30;;;22.30;;
2173;SDS011;1093;51.424;11.764;2023-10-31T01:37:16;35.53;;;21.40;;
2173;SDS011;1093;51.424;11.764;2023-10-31T01:39:44;31.23;;;20.97;;
2173;SDS011;1093;51.424;11.764;2023-10-31T01:42:13;31.73;;;22.20;;
2173;SDS011;1093;51.424;11.764;2023-10-31T01:44:41;34.73;;;22.27;;
2173;SDS011;1093;51.424;11.764;2023-10-31T01:47:08;38.60;;;20.83;;
2173;SDS011;1093;51.424;11.764;2023-10-31T01:49:35;35.13;;;21.00;;
2173;SDS011;1093;51.424;11.764;2023-10-31T01:52:03;39.43;;;22.40;;
2173;SDS011;1093;51.424;11.764;2023-10-31T01:54:31;36.53;;;22.30;;
2173;SDS011;1093;51.424;11.764;2023-10-31T01:56:58;32.03;;;20.80;;
2173;SDS011;1093;51.424;11.764;2023-10-31T01:59:26;33.20;;;20.93;;
2173;SDS011;1093;51.424;11.764;2023-10-31T02:01:55;27.23;;;18.03;;
2173;SDS011;1093;51.424;11.764;2023-10-31T02:04:23;36.10;;;21.80;;
2173;SDS011;1093;51.424;11.764;2023-10-31T02:06:50;29.33;;;18.63;;
2173;SDS011;1093;51.424;11.764;2023-10-31T02:09:17;27.40;;;18.13;;
2173;SDS011;1093;51.424;11.764;2023-10-31T02:11:43;26.77;;;17.70;;
2173;SDS011;1093;51.424;11.764;2023-10-31T02:14:10;21.97;;;16.60;;
2173;SDS011;1093;51.424;11.764;2023-10-31T02:16:37;22.17;;;15.93;;
2173;SDS011;1093;51.424;11.764;2023-10-31T02:19:05;23.47;;;14.37;;
2173;SDS011;1093;51.424;11.764;2023-10-31T02:21:33;18.93;;;13.93;;
2173;SDS011;1093;51.424;11.764;2023-10-31T02:24:02;19.47;;;14.70;;
2173;SDS011;1093;51.424;11.764;2023-10-31T02:26:28;19.53;;;14.23;;
2173;SDS011;1093;51.424;11.764;2023-10-31T02:28:57;19.20;;;14.10;;
2173;SDS011;1093;51.424;11.764;2023-10-31T02:31:24;20.20;;;13.17;;
2173;SDS011;1093;51.424;11.764;2023-10-31T02:33:51;21.23;;;14.40;;
2173;SDS011;1093;51.424;11.764;2023-10-31T02:36:18;16.83;;;12.10;;
2173;SDS011;1093;51.424;11.764;2023-10-31T02:38:45;15.33;;;12.03;;
2173;SDS011;1093;51.424;11.764;2023-10-31T02:41:13;18.00;;;11.60;;
2173;SDS011;1093;51.424;11.764;2023-10-31T02:43:40;17.17;;;12.27;;
2173;SDS011;1093;51.424;11.764;2023-10-31T02:46:08;13.93;;;10.07;;
2173;SDS011;1093;51.424;11.764;2023-10-31T02:48:37;13.40;;;10.23;;
2173;SDS011;1093;51.424;11.764;2023-10-31T02:51:05;16.87;;;10.30;;
2173;SDS011;1093;51.424;11.764;2023-10-31T02:53:32;16.90;;;10.80;;
2173;SDS011;1093;51.424;11.764;2023-10-31T02:55:59;13.53;;;9.90;;
2173;SDS011;1093;51.424;11.764;2023-10-31T02:58:27;11.53;;;8.73;;
2173;SDS011;1093;51.424;11.764;2023-10-31T03:00:54;15.93;;;9.37;;
2173;SDS011;1093;51.424;11.764;2023-10-31T03:03:21;12.87;;;9.53;;
2173;SDS011;1093;51.424;11.764;2023-10-31T03:05:48;15.33;;;10.00;;
2173;SDS011;1093;51.424;11.764;2023-10-31T03:08:14;12.10;;;8.47;;
2173;SDS011;1093;51.424;11.764;2023-10-31T03:10:45;13.23;;;7.93;;
2173;SDS011;1093;51.424;11.764;2023-10-31T03:13:15;7.00;;;6.30;;
2173;SDS011;1093;51.424;11.764;2023-10-31T03:15:43;8.20;;;7.30;;
2173;SDS011;1093;51.424;11.764;2023-10-31T03:18:11;7.70;;;6.90;;
2173;SDS011;1093;51.424;11.764;2023-10-31T03:20:39;6.90;;;6.00;;
2173;SDS011;1093;51.424;11.764;2023-10-31T03:23:06;8.30;;;5.37;;
2173;SDS011;1093;51.424;11.764;2023-10-31T03:25:33;4.63;;;4.23;;
2173;SDS011;1093;51.424;11.764;2023-10-31T03:28:00;7.00;;;5.13;;
2173;SDS011;1093;51.424;11.764;2023-10-31T03:30:27;7.73;;;5.20;;
2173;SDS011;1093;51.424;11.764;2023-10-31T03:32:55;5.30;;;4.80;;
2173;SDS011;1093;51.424;11.764;2023-10-31T03:35:21;6.13;;;4.53;;
2173;SDS011;1093;51.424;11.764;2023-10-31T03:37:48;8.80;;;5.33;;
2173;SDS011;1093;51.424;11.764;2023-10-31T03:40:15;6.00;;;4.10;;
2173;SDS011;1093;51.424;11.764;2023-10-31T03:42:42;5.40;;;4.40;;
2173;SDS011;1093;51.424;11.764;2023-10-31T03:45:09;6.27;;;4.53;;
2173;SDS011;1093;51.424;11.764;2023-10-31T03:47:36;5.23;;;4.33;;
2173;SDS011;1093;51.424;11.764;2023-10-31T03:50:05;7.50;;;4.20;;
2173;SDS011;1093;51.424;11.764;2023-10-31T03:52:32;5.10;;;4.10;;
2173;SDS011;1093;51.424;11.764;2023-10-31T03:54:59;6.23;;;4.57;;
2173;SDS011;1093;51.424;11.764;2023-10-31T03:57:26;7.93;;;3.90;;
2173;SDS011;1093;51.424;11.764;2023-10-31T03:59:52;3.93;;;3.57;;
2173;SDS011;1093;51.424;11.764;2023-10-31T04:02:20;5.10;;;4.13;;
2173;SDS011;1093;51.424;11.764;2023-10-31T04:04:46;4.90;;;3.90;;
2173;SDS011;1093;51.424;11.764;2023-10-31T04:07:15;7.03;;;5.03;;
2173;SDS011;1093;51.424;11.764;2023-10-31T04:09:42;6.47;;;4.27;;
2173;SDS011;1093;51.424;11.764;2023-10-31T04:12:09;9.40;;;5.17;;
2173;SDS011;1093;51.424;11.764;2023-10-31T04:14:37;7.63;;;4.73;;
2173;SDS011;1093;51.424;11.764;2023-10-31T04:17:04;8.57;;;5.47;;
2173;SDS011;1093;51.424;11.764;2023-10-31T04:19:31;5.23;;;4.07;;
2173;SDS011;1093;51.424;11.764;2023-10-31T04:21:58;5.27;;;4.77;;
2173;SDS011;1093;51.424;11.764;2023-10-31T04:24:26;5.20;;;4.70;;
2173;SDS011;1093;51.424;11.764;2023-10-31T04:26:53;4.30;;;3.90;;
2173;SDS011;1093;51.424;11.764;2023-10-31T04:29:20;4.70;;;4.30;;
2173;SDS011;1093;51.424;11.764;2023-10-31T04:31:46;6.13;;;4.40;;
2173;SDS011;1093;51.424;11.764;2023-10-31T04:34:13;4.60;;;4.20;;
2173;SDS011;1093;51.424;11.764;2023-10-31T04:36:40;4.50;;;3.93;;
2173;SDS011;1093;51.424;11.764;2023-10-31T04:39:08;4.90;;;3.83;;
2173;SDS011;1093;51.424;11.764;2023-10-31T04:41:36;4.37;;;3.97;;
2173;SDS011;1093;51.424;11.764;2023-10-31T04:44:03;5.90;;;4.30;;
2173;SDS011;1093;51.424;11.764;2023-10-31T04:46:30;5.50;;;4.63;;
2173;SDS011;1093;51.424;11.764;2023-10-31T04:48:57;6.17;;;4.43;;
2173;SDS011;1093;51.424;11.764;2023-10-31T04:51:24;3.73;;;3.43;;
2173;SDS011;1093;51.424;11.764;2023-10-31T04:53:52;5.50;;;3.80;;
2173;SDS011;1093;51.424;11.764;2023-10-31T04:56:19;2.90;;;2.67;;
2173;SDS011;1093;51.424;11.764;2023-10-31T04:58:47;3.33;;;3.03;;
2173;SDS011;1093;51.424;11.764;2023-10-31T05:01:15;2.93;;;2.63;;
2173;SDS011;1093;51.424;11.764;2023-10-31T05:03:42;2.60;;;1.93;;
2173;SDS011;1093;51.424;11.764;2023-10-31T05:06:09;2.20;;;1.90;;
2173;SDS011;1093;51.424;11.764;2023-10-31T05:08:36;2.60;;;2.37;;
2173;SDS011;1093;51.424;11.764;2023-10-31T05:11:03;2.80;;;2.57;;
2173;SDS011;1093;51.424;11.764;2023-10-31T05:13:30;2.03;;;1.83;;
2173;SDS011;1093;51.424;11.764;2023-10-31T05:15:58;2.43;;;2.23;;
2173;SDS011;1093;51.424;11.764;2023-10-31T05:18:25;3.07;;;2.23;;
2173;SDS011;1093;51.424;11.764;2023-10-31T05:20:52;1.70;;;1.40;;
2173;SDS011;1093;51.424;11.764;2023-10-31T05:23:19;2.30;;;2.10;;
2173;SDS011;1093;51.424;11.764;2023-10-31T05:25:45;2.23;;;2.03;;
2173;SDS011;1093;51.424;11.764;2023-10-31T05:28:12;2.27;;;2.07;;
2173;SDS011;1093;51.424;11.764;2023-10-31T05:30:39;2.50;;;1.83;;
2173;SDS011;1093;51.424;11.764;2023-10-31T05:33:08;2.13;;;1.63;;
2173;SDS011;1093;51.424;11.764;2023-10-31T05:35:35;2.20;;;2.00;;
2173;SDS011;1093;51.424;11.764;2023-10-31T05:38:01;1.83;;;1.73;;
2173;SDS011;1093;51.424;11.764;2023-10-31T05:40:28;2.93;;;1.53;;
2173;SDS011;1093;51.424;11.764;2023-10-31T05:42:57;4.10;;;1.80;;
2173;SDS011;1093;51.424;11.764;2023-10-31T05:45:24;3.00;;;1.60;;
2173;SDS011;1093;51.424;11.764;2023-10-31T05:47:50;2.40;;;2.20;;
2173;SDS011;1093;51.424;11.764;2023-10-31T05:50:19;1.90;;;1.80;;
2173;SDS011;1093;51.424;11.764;2023-10-31T05:52:46;4.30;;;1.90;;
2173;SDS011;1093;51.424;11.764;2023-10-31T05:55:13;2.17;;;2.07;;
2173;SDS011;1093;51.424;11.764;2023-10-31T05:57:41;1.53;;;1.43;;
2173;SDS011;1093;51.424;11.764;2023-10-31T06:00:08;2.30;;;2.07;;
2173;SDS011;1093;51.424;11.764;2023-10-31T06:02:35;4.50;;;2.30;;
2173;SDS011;1093;51.424;11.764;2023-10-31T06:05:02;1.83;;;1.73;;
2173;SDS011;1093;51.424;11.764;2023-10-31T06:07:31;3.00;;;1.93;;
2173;SDS011;1093;51.424;11.764;2023-10-31T06:09:58;5.70;;;2.37;;
2173;SDS011;1093;51.424;11.764;2023-10-31T06:12:25;2.03;;;1.83;;
2173;SDS011;1093;51.424;11.764;2023-10-31T06:14:52;2.43;;;2.07;;
2173;SDS011;1093;51.424;11.764;2023-10-31T06:17:19;1.83;;;1.70;;
2173;SDS011;1093;51.424;11.764;2023-10-31T06:19:48;2.10;;;2.00;;
2173;SDS011;1093;51.424;11.764;2023-10-31T06:22:15;2.13;;;2.03;;
2173;SDS011;1093;51.424;11.764;2023-10-31T06:24:43;1.70;;;1.60;;
2173;SDS011;1093;51.424;11.764;2023-10-31T06:27:10;2.23;;;2.03;;
2173;SDS011;1093;51.424;11.764;2023-10-31T06:29:37;2.10;;;1.60;;
2173;SDS011;1093;51.424;11.764;2023-10-31T06:32:04;1.80;;;1.70;;
2173;SDS011;1093;51.424;11.764;2023-10-31T06:34:31;1.90;;;1.80;;
2173;SDS011;1093;51.424;11.764;2023-10-31T06:36:58;6.60;;;2.20;;
2173;SDS011;1093;51.424;11.764;2023-10-31T06:39:25;2.10;;;2.00;;
2173;SDS011;1093;51.424;11.764;2023-10-31T06:41:55;3.43;;;1.77;;
2173;SDS011;1093;51.424;11.764;2023-10-31T06:44:22;2.10;;;1.93;;
2173;SDS011;1093;51.424;11.764;2023-10-31T06:46:48;2.60;;;1.63;;
2173;SDS011;1093;51.424;11.764;2023-10-31T06:49:15;1.90;;;1.57;;
2173;SDS011;1093;51.424;11.764;2023-10-31T06:51:42;3.47;;;1.30;;
2173;SDS011;1093;51.424;11.764;2023-10-31T06:54:09;2.10;;;1.90;;
2173;SDS011;1093;51.424;11.764;2023-10-31T06:56:36;1.80;;;1.70;;
2173;SDS011;1093;51.424;11.764;2023-10-31T06:59:04;2.23;;;2.00;;
2173;SDS011;1093;51.424;11.764;2023-10-31T07:01:31;1.37;;;1.27;;
2173;SDS011;1093;51.424;11.764;2023-10-31T07:03:58;3.33;;;1.70;;
2173;SDS011;1093;51.424;11.764;2023-10-31T07:06:25;2.60;;;2.10;;
2173;SDS011;1093;51.424;11.764;2023-10-31T07:08:53;2.43;;;2.23;;
2173;SDS011;1093;51.424;11.764;2023-10-31T07:11:19;1.87;;;1.63;;
2173;SDS011;1093;51.424;11.764;2023-10-31T07:13:46;3.70;;;2.40;;
2173;SDS011;1093;51.424;11.764;2023-10-31T07:16:15;2.53;;;2.33;;
2173;SDS011;1093;51.424;11.764;2023-10-31T07:18:41;1.73;;;1.60;;
2173;SDS011;1093;51.424;11.764;2023-10-31T07:21:08;2.23;;;1.40;;
2173;SDS011;1093;51.424;11.764;2023-10-31T07:23:35;1.77;;;1.20;;
2173;SDS011;1093;51.424;11.764;2023-10-31T07:26:03;1.93;;;1.67;;
2173;SDS011;1093;51.424;11.764;2023-10-31T07:28:30;2.87;;;1.43;;
2173;SDS011;1093;51.424;11.764;2023-10-31T07:30:57;2.40;;;1.57;;
2173;SDS011;1093;51.424;11.764;2023-10-31T07:33:27;1.80;;;1.70;;
2173;SDS011;1093;51.424;11.764;2023-10-31T07:35:54;1.67;;;1.57;;
2173;SDS011;1093;51.424;11.764;2023-10-31T07:38:21;1.33;;;1.23;;
2173;SDS011;1093;51.424;11.764;2023-10-31T07:40:47;2.70;;;1.30;;
2173;SDS011;1093;51.424;11.764;2023-10-31T07:43:15;2.70;;;1.70;;
2173;SDS011;1093;51.424;11.764;2023-10-31T07:45:42;1.80;;;1.37;;
2173;SDS011;1093;51.424;11.764;2023-10-31T07:48:09;1.40;;;1.30;;
2173;SDS011;1093;51.424;11.764;2023-10-31T07:50:37;1.73;;;1.60;;
2173;SDS011;1093;51.424;11.764;2023-10-31T07:53:06;7.37;;;1.80;;
2173;SDS011;1093;51.424;11.764;2023-10-31T07:55:33;2.60;;;1.50;;
2173;SDS011;1093;51.424;11.764;2023-10-31T07:57:59;1.63;;;1.30;;
2173;SDS011;1093;51.424;11.764;2023-10-31T08:00:26;1.77;;;1.27;;
2173;SDS011;1093;51.424;11.764;2023-10-31T08:02:54;1.40;;;1.30;;
2173;SDS011;1093;51.424;11.764;2023-10-31T08:05:20;1.57;;;1.40;;
2173;SDS011;1093;51.424;11.764;2023-10-31T08:07:49;1.23;;;1.13;;
2173;SDS011;1093;51.424;11.764;2023-10-31T08:10:15;1.03;;;0.93;;
2173;SDS011;1093;51.424;11.764;2023-10-31T08:12:42;5.63;;;1.63;;
2173;SDS011;1093;51.424;11.764;2023-10-31T08:15:09;1.20;;;0.97;;
2173;SDS011;1093;51.424;11.764;2023-10-31T08:17:36;1.60;;;1.50;;
2173;SDS011;1093;51.424;11.764;2023-10-31T08:20:03;2.80;;;1.40;;
2173;SDS011;1093;51.424;11.764;2023-10-31T08:22:31;1.43;;;1.33;;
2173;SDS011;1093;51.424;11.764;2023-10-31T08:24:59;1.40;;;1.00;;
2173;SDS011;1093;51.424;11.764;2023-10-31T08:27:26;4.20;;;1.50;;
2173;SDS011;1093;51.424;11.764;2023-10-31T08:29:53;5.77;;;2.00;;
2173;SDS011;1093;51.424;11.764;2023-10-31T08:32:20;5.73;;;1.30;;
2173;SDS011;1093;51.424;11.764;2023-10-31T08:34:49;2.20;;;1.37;;
2173;SDS011;1093;51.424;11.764;2023-10-31T08:37:17;2.53;;;1.77;;
2173;SDS011;1093;51.424;11.764;2023-10-31T08:39:44;2.30;;;1.00;;
2173;SDS011;1093;51.424;11.764;2023-10-31T08:42:12;1.20;;;1.07;;
2173;SDS011;1093;51.424;11.764;2023-10-31T08:44:39;3.43;;;1.07;;
2173;SDS011;1093;51.424;11.764;2023-10-31T08:47:06;2.60;;;1.27;;
2173;SDS011;1093;51.424;11.764;2023-10-31T08:49:33;1.00;;;0.90;;
2173;SDS011;1093;51.424;11.764;2023-10-31T08:52:00;4.30;;;0.83;;
2173;SDS011;1093;51.424;11.764;2023-10-31T08:54:29;1.10;;;0.90;;
2173;SDS011;1093;51.424;11.764;2023-10-31T08:56:56;1.70;;;1.00;;
2173;SDS011;1093;51.424;11.764;2023-10-31T08:59:26;1.23;;;0.97;;
2173;SDS011;1093;51.424;11.764;2023-10-31T09:01:53;3.20;;;0.73;;
2173;SDS011;1093;51.424;11.764;2023-10-31T09:04:20;1.07;;;0.97;;
2173;SDS011;1093;51.424;11.764;2023-10-31T09:06:47;0.80;;;0.60;;
2173;SDS011;1093;51.424;11.764;2023-10-31T09:09:14;1.00;;;0.60;;
2173;SDS011;1093;51.424;11.764;2023-10-31T09:11:40;2.77;;;1.03;;
2173;SDS011;1093;51.424;11.764;2023-10-31T09:14:07;0.80;;;0.73;;
2173;SDS011;1093;51.424;11.764;2023-10-31T09:16:36;2.27;;;1.27;;
2173;SDS011;1093;51.424;11.764;2023-10-31T09:19:02;0.97;;;0.70;;
2173;SDS011;1093;51.424;11.764;2023-10-31T09:21:29;2.20;;;0.60;;
2173;SDS011;1093;51.424;11.764;2023-10-31T09:23:56;3.53;;;0.60;;
2173;SDS011;1093;51.424;11.764;2023-10-31T09:26:25;0.80;;;0.50;;
2173;SDS011;1093;51.424;11.764;2023-10-31T09:28:51;1.87;;;0.70;;
2173;SDS011;1093;51.424;11.764;2023-10-31T09:31:18;0.80;;;0.67;;
2173;SDS011;1093;51.424;11.764;2023-10-31T09:33:47;1.17;;;0.97;;
2173;SDS011;1093;51.424;11.764;2023-10-31T09:36:14;0.80;;;0.50;;
2173;SDS011;1093;51.424;11.764;2023-10-31T09:38:40;0.73;;;0.70;;
2173;SDS011;1093;51.424;11.764;2023-10-31T09:41:07;2.97;;;1.17;;
2173;SDS011;1093;51.424;11.764;2023-10-31T09:43:34;0.80;;;0.50;;
2173;SDS011;1093;51.424;11.764;2023-10-31T09:46:02;0.80;;;0.60;;
2173;SDS011;1093;51.424;11.764;2023-10-31T09:48:29;0.70;;;0.57;;
2173;SDS011;1093;51.424;11.764;2023-10-31T09:50:59;1.47;;;0.83;;
2173;SDS011;1093;51.424;11.764;2023-10-31T09:53:26;2.00;;;0.97;;
2173;SDS011;1093;51.424;11.764;2023-10-31T09:55:54;1.38;;;0.70;;
2173;SDS011;1093;51.424;11.764;2023-10-31T09:58:22;0.93;;;0.50;;
2173;SDS011;1093;51.424;11.764;2023-10-31T10:00:49;1.13;;;0.80;;
2173;SDS011;1093;51.424;11.764;2023-10-31T10:03:16;1.57;;;1.00;;
2173;SDS011;1093;51.424;11.764;2023-10-31T10:05:43;1.00;;;0.73;;
2173;SDS011;1093;51.424;11.764;2023-10-31T10:08:14;0.70;;;0.60;;
2173;SDS011;1093;51.424;11.764;2023-10-31T10:10:41;2.03;;;0.80;;
2173;SDS011;1093;51.424;11.764;2023-10-31T10:13:08;2.03;;;0.60;;
2173;SDS011;1093;51.424;11.764;2023-10-31T10:15:43;1.30;;;0.70;;
2173;SDS011;1093;51.424;11.764;2023-10-31T10:18:10;0.70;;;0.67;;
2173;SDS011;1093;51.424;11.764;2023-10-31T10:20:49;1.20;;;0.80;;
2173;SDS011;1093;51.424;11.764;2023-10-31T10:23:22;1.27;;;1.03;;
2173;SDS011;1093;51.424;11.764;2023-10-31T10:25:49;3.53;;;1.10;;
2173;SDS011;1093;51.424;11.764;2023-10-31T10:28:16;1.50;;;1.13;;
2173;SDS011;1093;51.424;11.764;2023-10-31T10:30:45;0.90;;;0.80;;
2173;SDS011;1093;51.424;11.764;2023-10-31T10:33:14;1.80;;;1.10;;
2173;SDS011;1093;51.424;11.764;2023-10-31T10:35:41;3.83;;;1.17;;
2173;SDS011;1093;51.424;11.764;2023-10-31T10:38:09;1.33;;;0.87;;
2173;SDS011;1093;51.424;11.764;2023-10-31T10:40:40;1.40;;;0.73;;
2173;SDS011;1093;51.424;11.764;2023-10-31T10:43:10;1.00;;;0.90;;
2173;SDS011;1093;51.424;11.764;2023-10-31T10:45:41;2.03;;;0.93;;
2173;SDS011;1093;51.424;11.764;2023-10-31T10:48:11;1.47;;;0.80;;
2173;SDS011;1093;51.424;11.764;2023-10-31T10:50:42;2.30;;;1.90;;
2173;SDS011;1093;51.424;11.764;2023-10-31T10:53:13;1.67;;;1.40;;
2173;SDS011;1093;51.424;11.764;2023-10-31T10:55:53;2.30;;;1.20;;
2173;SDS011;1093;51.424;11.764;2023-10-31T10:58:25;1.83;;;1.00;;
2173;SDS011;1093;51.424;11.764;2023-10-31T11:00:58;1.00;;;0.83;;
2173;SDS011;1093;51.424;11.764;2023-10-31T11:03:27;1.80;;;1.13;;
2173;SDS011;1093;51.424;11.764;2023-10-31T11:05:56;1.20;;;1.00;;
2173;SDS011;1093;51.424;11.764;2023-10-31T11:08:23;1.07;;;0.90;;
2173;SDS011;1093;51.424;11.764;2023-10-31T11:10:52;1.73;;;1.20;;
2173;SDS011;1093;51.424;11.764;2023-10-31T11:13:20;1.20;;;1.00;;
2173;SDS011;1093;51.424;11.764;2023-10-31T11:15:48;2.50;;;1.20;;
2173;SDS011;1093;51.424;11.764;2023-10-31T11:18:20;1.93;;;1.20;;
2173;SDS011;1093;51.424;11.764;2023-10-31T11:20:47;1.30;;;1.20;;
2173;SDS011;1093;51.424;11.764;2023-10-31T11:23:17;2.53;;;1.17;;
2173;SDS011;1093;51.424;11.764;2023-10-31T11:25:46;1.20;;;1.03;;
2173;SDS011;1093;51.424;11.764;2023-10-31T11:28:18;1.70;;;0.90;;
2173;SDS011;1093;51.424;11.764;2023-10-31T11:30:47;1.87;;;1.23;;
2173;SDS011;1093;51.424;11.764;2023-10-31T11:33:16;0.80;;;0.80;;
2173;SDS011;1093;51.424;11.764;2023-10-31T11:35:49;1.37;;;1.20;;
2173;SDS011;1093;51.424;11.764;2023-10-31T11:38:16;1.23;;;1.13;;
2173;SDS011;1093;51.424;11.764;2023-10-31T11:41:00;1.60;;;1.37;;
2173;SDS011;1093;51.424;11.764;2023-10-31T11:48:50;1.23;;;1.13;;
2173;SDS011;1093;51.424;11.764;2023-10-31T11:51:18;2.73;;;1.40;;
2173;SDS011;1093;51.424;11.764;2023-10-31T11:53:45;1.50;;;1.40;;
2173;SDS011;1093;51.424;11.764;2023-10-31T11:56:12;1.40;;;1.30;;
2173;SDS011;1093;51.424;11.764;2023-10-31T11:58:40;2.73;;;2.00;;
2173;SDS011;1093;51.424;11.764;2023-10-31T12:01:09;2.43;;;1.60;;
2173;SDS011;1093;51.424;11.764;2023-10-31T12:03:37;2.83;;;1.60;;
2173;SDS011;1093;51.424;11.764;2023-10-31T12:06:04;3.93;;;1.10;;
2173;SDS011;1093;51.424;11.764;2023-10-31T12:08:33;1.47;;;1.20;;
2173;SDS011;1093;51.424;11.764;2023-10-31T12:11:05;1.60;;;1.50;;
2173;SDS011;1093;51.424;11.764;2023-10-31T12:13:34;1.27;;;1.17;;
2173;SDS011;1093;51.424;11.764;2023-10-31T12:16:02;3.07;;;1.70;;
2173;SDS011;1093;51.424;11.764;2023-10-31T12:18:31;1.77;;;1.67;;
2173;SDS011;1093;51.424;11.764;2023-10-31T12:20:57;2.03;;;1.10;;
2173;SDS011;1093;51.424;11.764;2023-10-31T12:23:24;1.80;;;1.67;;
2173;SDS011;1093;51.424;11.764;2023-10-31T12:25:52;1.30;;;1.20;;
2173;SDS011;1093;51.424;11.764;2023-10-31T12:28:20;1.40;;;1.30;;
2173;SDS011;1093;51.424;11.764;2023-10-31T12:30:47;2.17;;;1.20;;
2173;SDS011;1093;51.424;11.764;2023-10-31T12:33:15;1.27;;;1.17;;
2173;SDS011;1093;51.424;11.764;2023-10-31T12:35:44;1.37;;;1.27;;
2173;SDS011;1093;51.424;11.764;2023-10-31T12:38:12;1.43;;;1.33;;
2173;SDS011;1093;51.424;11.764;2023-10-31T12:40:39;2.40;;;1.97;;
2173;SDS011;1093;51.424;11.764;2023-10-31T12:43:07;1.93;;;1.37;;
2173;SDS011;1093;51.424;11.764;2023-10-31T12:45:35;7.93;;;1.47;;
2173;SDS011;1093;51.424;11.764;2023-10-31T12:48:02;1.73;;;1.63;;
2173;SDS011;1093;51.424;11.764;2023-10-31T12:50:30;1.33;;;1.20;;
2173;SDS011;1093;51.424;11.764;2023-10-31T12:52:59;1.80;;;1.70;;
2173;SDS011;1093;51.424;11.764;2023-10-31T12:55:29;1.53;;;1.43;;
2173;SDS011;1093;51.424;11.764;2023-10-31T12:57:56;2.00;;;1.60;;
2173;SDS011;1093;51.424;11.764;2023-10-31T13:00:29;1.40;;;1.30;;
2173;SDS011;1093;51.424;11.764;2023-10-31T13:03:00;2.00;;;1.73;;
2173;SDS011;1093;51.424;11.764;2023-10-31T13:05:29;1.90;;;1.50;;
2173;SDS011;1093;51.424;11.764;2023-10-31T13:07:59;1.60;;;1.50;;
2173;SDS011;1093;51.424;11.764;2023-10-31T13:10:29;1.80;;;1.70;;
2173;SDS011;1093;51.424;11.764;2023-10-31T13:12:57;1.90;;;1.57;;
2173;SDS011;1093;51.424;11.764;2023-10-31T13:15:24;1.80;;;1.70;;
2173;SDS011;1093;51.424;11.764;2023-10-31T13:17:52;2.40;;;1.23;;
2173;SDS011;1093;51.424;11.764;2023-10-31T13:20:20;1.43;;;1.33;;
2173;SDS011;1093;51.424;11.764;2023-10-31T13:22:47;6.20;;;1.60;;
2173;SDS011;1093;51.424;11.764;2023-10-31T13:25:16;2.60;;;1.80;;
2173;SDS011;1093;51.424;11.764;2023-10-31T13:27:43;2.03;;;1.93;;
2173;SDS011;1093;51.424;11.764;2023-10-31T13:30:15;2.60;;;1.60;;
2173;SDS011;1093;51.424;11.764;2023-10-31T13:32:43;1.50;;;1.40;;
2173;SDS011;1093;51.424;11.764;2023-10-31T13:35:11;2.10;;;1.90;;
2173;SDS011;1093;51.424;11.764;2023-10-31T13:37:40;1.40;;;1.30;;
2173;SDS011;1093;51.424;11.764;2023-10-31T13:40:07;1.93;;;1.17;;
2173;SDS011;1093;51.424;11.764;2023-10-31T13:42:36;1.70;;;1.60;;
2173;SDS011;1093;51.424;11.764;2023-10-31T13:45:03;3.07;;;1.50;;
2173;SDS011;1093;51.424;11.764;2023-10-31T13:47:30;1.70;;;1.30;;
2173;SDS011;1093;51.424;11.764;2023-10-31T13:49:58;2.10;;;1.13;;
2173;SDS011;1093;51.424;11.764;2023-10-31T13:52:24;2.67;;;1.43;;
2173;SDS011;1093;51.424;11.764;2023-10-31T13:54:51;1.30;;;1.03;;
2173;SDS011;1093;51.424;11.764;2023-10-31T13:57:18;1.63;;;1.10;;
2173;SDS011;1093;51.424;11.764;2023-10-31T13:59:47;5.50;;;1.40;;
2173;SDS011;1093;51.424;11.764;2023-10-31T14:02:13;1.40;;;1.30;;
2173;SDS011;1093;51.424;11.764;2023-10-31T14:04:42;2.27;;;1.47;;
2173;SDS011;1093;51.424;11.764;2023-10-31T14:07:09;2.80;;;2.00;;
2173;SDS011;1093;51.424;11.764;2023-10-31T14:09:39;2.10;;;1.50;;
2173;SDS011;1093;51.424;11.764;2023-10-31T14:12:06;3.13;;;1.80;;
2173;SDS011;1093;51.424;11.764;2023-10-31T14:14:33;1.60;;;1.50;;
2173;SDS011;1093;51.424;11.764;2023-10-31T14:17:01;1.80;;;1.70;;
2173;SDS011;1093;51.424;11.764;2023-10-31T14:19:30;1.90;;;1.80;;
2173;SDS011;1093;51.424;11.764;2023-10-31T14:21:56;1.60;;;1.50;;
2173;SDS011;1093;51.424;11.764;2023-10-31T14:24:23;2.57;;;1.40;;
2173;SDS011;1093;51.424;11.764;2023-10-31T14:26:50;3.57;;;1.67;;
2173;SDS011;1093;51.424;11.764;2023-10-31T14:29:17;2.80;;;1.67;;
2173;SDS011;1093;51.424;11.764;2023-10-31T14:31:44;2.80;;;1.60;;
2173;SDS011;1093;51.424;11.764;2023-10-31T14:34:13;4.87;;;1.57;;
2173;SDS011;1093;51.424;11.764;2023-10-31T14:36:40;1.63;;;1.53;;
2173;SDS011;1093;51.424;11.764;2023-10-31T14:39:07;1.60;;;1.50;;
2173;SDS011;1093;51.424;11.764;2023-10-31T14:41:37;2.23;;;2.03;;
2173;SDS011;1093;51.424;11.764;2023-10-31T14:44:04;1.77;;;1.50;;
2173;SDS011;1093;51.424;11.764;2023-10-31T14:46:31;3.97;;;2.20;;
2173;SDS011;1093;51.424;11.764;2023-10-31T14:48:58;1.87;;;1.77;;
2173;SDS011;1093;51.424;11.764;2023-10-31T14:51:26;1.90;;;1.80;;
2173;SDS011;1093;51.424;11.764;2023-10-31T14:53:57;1.67;;;1.20;;
2173;SDS011;1093;51.424;11.764;2023-10-31T14:56:24;2.57;;;2.10;;
2173;SDS011;1093;51.424;11.764;2023-10-31T14:58:54;1.80;;;1.70;;
2173;SDS011;1093;51.424;11.764;2023-10-31T15:01:21;1.77;;;1.67;;
2173;SDS011;1093;51.424;11.764;2023-10-31T15:03:48;1.83;;;1.40;;